Time,TemperatureF,DewpointF,PressureIn,WindDirection,WindDirectionDegrees,WindSpeedMPH,WindSpeedGustMPH,Humidity,HourlyPrecipIn,Conditions,Clouds,dailyrainin,SolarRadiationWatts/m^2,SoftwareType,DateUTC
2013-02-10 00:11:00,8.0,-4.0,-100.00,North,10,5.0,16.0,56,0.00,,,0.00,0.000000,,2013-02-10 07:11:00,
2013-02-10 00:21:00,8.0,-4.0,-100.00,North,10,5.0,16.0,56,0.00,,,0.00,0.000000,,2013-02-10 07:21:00,
2013-02-10 00:31:00,8.0,-4.0,-100.00,North,10,5.0,16.0,56,0.00,,,0.00,0.000000,,2013-02-10 07:31:00,
2013-02-10 00:41:00,8.0,-4.0,-100.00,North,10,5.0,16.0,56,0.00,,,0.00,0.000000,,2013-02-10 07:41:00,
2013-02-10 00:51:00,8.0,-4.0,-100.00,North,10,5.0,16.0,56,0.00,,,0.00,0.000000,,2013-02-10 07:51:00,
2013-02-10 01:11:00,8.0,-5.0,-100.00,North,8,4.0,16.0,55,0.00,,,0.00,0.000000,,2013-02-10 08:11:00,
2013-02-10 01:21:00,8.0,-5.0,-100.00,North,8,4.0,16.0,55,0.00,,,0.00,0.000000,,2013-02-10 08:21:00,
2013-02-10 01:32:00,8.0,-5.0,-100.00,North,8,4.0,16.0,55,0.00,,,0.00,0.000000,,2013-02-10 08:32:00,
2013-02-10 01:43:00,8.0,-5.0,-100.00,North,8,4.0,16.0,55,0.00,,,0.00,0.000000,,2013-02-10 08:43:00,
2013-02-10 01:52:00,8.0,-5.0,-100.00,North,8,4.0,16.0,55,0.00,,,0.00,0.000000,,2013-02-10 08:52:00,
2013-02-10 02:11:00,7.0,-6.0,-100.00,ENE,64,3.0,16.0,55,0.00,,,0.00,0.000000,,2013-02-10 09:11:00,
2013-02-10 02:21:00,7.0,-6.0,-100.00,ENE,64,3.0,16.0,55,0.00,,,0.00,0.000000,,2013-02-10 09:21:00,
2013-02-10 02:32:00,7.0,-6.0,-100.00,ENE,64,3.0,16.0,55,0.00,,,0.00,0.000000,,2013-02-10 09:32:00,
2013-02-10 02:41:00,7.0,-6.0,-100.00,ENE,64,3.0,16.0,55,0.00,,,0.00,0.000000,,2013-02-10 09:41:00,
2013-02-10 02:51:00,7.0,-6.0,-100.00,ENE,64,3.0,16.0,55,0.00,,,0.00,0.000000,,2013-02-10 09:51:00,
2013-02-10 03:11:00,7.0,-7.0,-100.00,WSW,254,4.0,12.0,52,0.00,,,0.00,0.000000,,2013-02-10 10:11:00,
2013-02-10 03:21:00,7.0,-7.0,-100.00,WSW,254,4.0,12.0,52,0.00,,,0.00,0.000000,,2013-02-10 10:21:00,
2013-02-10 03:31:00,7.0,-7.0,-100.00,WSW,254,4.0,12.0,52,0.00,,,0.00,0.000000,,2013-02-10 10:31:00,
2013-02-10 03:41:00,7.0,-7.0,-100.00,WSW,254,4.0,12.0,52,0.00,,,0.00,0.000000,,2013-02-10 10:41:00,
2013-02-10 03:51:00,7.0,-7.0,-100.00,WSW,254,4.0,12.0,52,0.00,,,0.00,0.000000,,2013-02-10 10:51:00,
2013-02-10 04:11:00,7.0,-7.0,-100.00,NE,44,3.0,15.0,51,0.00,,,0.00,0.000000,,2013-02-10 11:11:00,
2013-02-10 04:22:00,7.0,-7.0,-100.00,NE,44,3.0,15.0,51,0.00,,,0.00,0.000000,,2013-02-10 11:22:00,
2013-02-10 04:32:00,7.0,-7.0,-100.00,NE,44,3.0,15.0,51,0.00,,,0.00,0.000000,,2013-02-10 11:32:00,
2013-02-10 04:42:00,7.0,-7.0,-100.00,NE,44,3.0,15.0,51,0.00,,,0.00,0.000000,,2013-02-10 11:42:00,
2013-02-10 04:52:00,7.0,-7.0,-100.00,NE,44,3.0,15.0,51,0.00,,,0.00,0.000000,,2013-02-10 11:52:00,
2013-02-10 05:12:00,8.0,-6.0,-100.00,North,4,3.0,17.0,53,0.00,,,0.00,0.000000,,2013-02-10 12:12:00,
2013-02-10 05:21:00,8.0,-6.0,-100.00,North,4,3.0,17.0,53,0.00,,,0.00,0.000000,,2013-02-10 12:21:00,
2013-02-10 05:32:00,8.0,-6.0,-100.00,North,4,3.0,17.0,53,0.00,,,0.00,0.000000,,2013-02-10 12:32:00,
2013-02-10 05:42:00,8.0,-6.0,-100.00,North,4,3.0,17.0,53,0.00,,,0.00,0.000000,,2013-02-10 12:42:00,
2013-02-10 05:52:00,8.0,-6.0,-100.00,North,4,3.0,17.0,53,0.00,,,0.00,0.000000,,2013-02-10 12:52:00,
2013-02-10 08:11:00,9.0,-4.0,-100.00,SE,137,3.0,9.0,55,-99.99,,,0.00,19.000000,,2013-02-10 15:11:00,
2013-02-10 08:22:00,9.0,-4.0,-100.00,SE,137,3.0,9.0,55,-99.99,,,0.00,19.000000,,2013-02-10 15:22:00,
2013-02-10 08:32:00,9.0,-4.0,-100.00,SE,137,3.0,9.0,55,-99.99,,,0.00,19.000000,,2013-02-10 15:32:00,
2013-02-10 08:42:00,9.0,-4.0,-100.00,SE,137,3.0,9.0,55,-99.99,,,0.00,19.000000,,2013-02-10 15:42:00,
2013-02-10 08:51:00,9.0,-4.0,-100.00,SE,137,3.0,9.0,55,-99.99,,,0.00,19.000000,,2013-02-10 15:51:00,
2013-02-10 09:12:00,12.0,-3.0,-100.00,SSE,162,3.0,10.0,51,0.00,,,0.00,98.000000,,2013-02-10 16:12:00,
2013-02-10 09:22:00,12.0,-3.0,-100.00,SSE,162,3.0,10.0,51,0.00,,,0.00,98.000000,,2013-02-10 16:22:00,
2013-02-10 09:32:00,12.0,-3.0,-100.00,SSE,162,3.0,10.0,51,0.00,,,0.00,98.000000,,2013-02-10 16:32:00,
2013-02-10 09:42:00,12.0,-3.0,-100.00,SSE,162,3.0,10.0,51,0.00,,,0.00,98.000000,,2013-02-10 16:42:00,
2013-02-10 09:52:00,12.0,-3.0,-100.00,SSE,162,3.0,10.0,51,0.00,,,0.00,98.000000,,2013-02-10 16:52:00,
2013-02-10 10:22:00,15.0,-2.0,-100.00,West,280,5.0,11.0,46,0.00,,,0.00,213.000000,,2013-02-10 17:22:00,
2013-02-10 10:32:00,15.0,-2.0,-100.00,West,280,5.0,11.0,46,0.00,,,0.00,213.000000,,2013-02-10 17:32:00,
2013-02-10 10:42:00,15.0,-2.0,-100.00,West,280,5.0,11.0,46,0.00,,,0.00,213.000000,,2013-02-10 17:42:00,
2013-02-10 10:52:00,15.0,-2.0,-100.00,West,280,5.0,11.0,46,0.00,,,0.00,213.000000,,2013-02-10 17:52:00,
2013-02-10 11:22:00,19.0,-4.0,-100.00,WNW,300,6.0,12.0,35,0.00,,,0.00,389.000000,,2013-02-10 18:22:00,
2013-02-10 11:32:00,19.0,-4.0,-100.00,WNW,300,6.0,12.0,35,0.00,,,0.00,389.000000,,2013-02-10 18:32:00,
2013-02-10 11:42:00,19.0,-4.0,-100.00,WNW,300,6.0,12.0,35,0.00,,,0.00,389.000000,,2013-02-10 18:42:00,
2013-02-10 11:52:00,19.0,-4.0,-100.00,WNW,300,6.0,12.0,35,0.00,,,0.00,389.000000,,2013-02-10 18:52:00,
2013-02-10 12:22:00,19.0,-6.0,-100.00,WNW,296,4.0,11.0,32,0.00,,,0.00,416.000000,,2013-02-10 19:22:00,
2013-02-10 12:32:00,19.0,-6.0,-100.00,WNW,296,4.0,11.0,32,0.00,,,0.00,416.000000,,2013-02-10 19:32:00,
2013-02-10 12:42:00,19.0,-6.0,-100.00,WNW,296,4.0,11.0,32,0.00,,,0.00,416.000000,,2013-02-10 19:42:00,
2013-02-10 12:52:00,19.0,-6.0,-100.00,WNW,296,4.0,11.0,32,0.00,,,0.00,416.000000,,2013-02-10 19:52:00,
2013-02-10 13:11:00,21.0,-5.0,-100.00,West,270,5.0,12.0,31,0.00,,,0.00,418.000000,,2013-02-10 20:11:00,
2013-02-10 13:22:00,21.0,-5.0,-100.00,West,270,5.0,12.0,31,0.00,,,0.00,418.000000,,2013-02-10 20:22:00,
2013-02-10 13:32:00,21.0,-5.0,-100.00,West,270,5.0,12.0,31,0.00,,,0.00,418.000000,,2013-02-10 20:32:00,
2013-02-10 13:42:00,21.0,-5.0,-100.00,West,270,5.0,12.0,31,0.00,,,0.00,418.000000,,2013-02-10 20:42:00,
2013-02-10 13:52:00,21.0,-5.0,-100.00,West,270,5.0,12.0,31,0.00,,,0.00,418.000000,,2013-02-10 20:52:00,
2013-02-10 14:11:00,29.0,-6.0,-100.00,WSW,243,3.0,9.0,21,0.00,,,0.00,615.000000,,2013-02-10 21:11:00,
2013-02-10 14:22:00,29.0,-6.0,-100.00,WSW,243,3.0,9.0,21,0.00,,,0.00,615.000000,,2013-02-10 21:22:00,
2013-02-10 15:22:00,19.0,-5.0,-100.00,SW,223,6.0,12.0,34,-99.99,,,0.00,357.000000,,2013-02-10 22:22:00,
2013-02-10 15:32:00,19.0,-5.0,-100.00,SW,223,6.0,12.0,34,-99.99,,,0.00,357.000000,,2013-02-10 22:32:00,
2013-02-10 15:42:00,19.0,-5.0,-100.00,SW,223,6.0,12.0,34,-99.99,,,0.00,357.000000,,2013-02-10 22:42:00,
2013-02-10 15:52:00,19.0,-5.0,-100.00,SW,223,6.0,12.0,34,-99.99,,,0.00,357.000000,,2013-02-10 22:52:00,
2013-02-10 16:11:00,14.0,3.0,-100.00,South,181,3.0,14.0,60,0.00,,,0.00,128.000000,,2013-02-10 23:11:00,
2013-02-10 16:22:00,14.0,3.0,-100.00,South,181,3.0,14.0,60,0.00,,,0.00,128.000000,,2013-02-10 23:22:00,
2013-02-10 16:32:00,14.0,3.0,-100.00,South,181,3.0,14.0,60,0.00,,,0.00,128.000000,,2013-02-10 23:32:00,
2013-02-10 16:42:00,14.0,3.0,-100.00,South,181,3.0,14.0,60,0.00,,,0.00,128.000000,,2013-02-10 23:42:00,
2013-02-10 16:52:00,14.0,3.0,-100.00,South,181,3.0,14.0,60,0.00,,,0.00,128.000000,,2013-02-10 23:52:00,
2013-02-10 17:22:00,14.0,8.0,-100.00,WNW,300,1.0,7.0,75,0.00,,,0.00,61.000000,,2013-02-11 00:22:00,
2013-02-10 17:32:00,14.0,8.0,-100.00,WNW,300,1.0,7.0,75,0.00,,,0.00,61.000000,,2013-02-11 00:32:00,
2013-02-10 17:42:00,14.0,8.0,-100.00,WNW,300,1.0,7.0,75,0.00,,,0.00,61.000000,,2013-02-11 00:42:00,
2013-02-10 17:51:00,14.0,8.0,-100.00,WNW,300,1.0,7.0,75,0.00,,,0.00,61.000000,,2013-02-11 00:51:00,
2013-02-10 18:11:00,10.0,5.0,-100.00,NNW,346,2.0,3.0,81,0.00,,,0.00,17.000000,,2013-02-11 01:11:00,
2013-02-10 18:21:00,10.0,5.0,-100.00,NNW,346,2.0,3.0,81,0.00,,,0.00,17.000000,,2013-02-11 01:21:00,
2013-02-10 18:32:00,10.0,5.0,-100.00,NNW,346,2.0,3.0,81,0.00,,,0.00,17.000000,,2013-02-11 01:32:00,
2013-02-10 18:42:00,10.0,5.0,-100.00,NNW,346,2.0,3.0,81,0.00,,,0.00,17.000000,,2013-02-11 01:42:00,
2013-02-10 18:52:00,10.0,5.0,-100.00,NNW,346,2.0,3.0,81,0.00,,,0.00,17.000000,,2013-02-11 01:52:00,
2013-02-10 19:21:00,8.0,4.0,-100.00,NNW,336,2.0,5.0,84,0.00,,,0.00,0.000000,,2013-02-11 02:21:00,
2013-02-10 19:32:00,8.0,4.0,-100.00,NNW,336,2.0,5.0,84,0.00,,,0.00,0.000000,,2013-02-11 02:32:00,
2013-02-10 19:42:00,8.0,4.0,-100.00,NNW,336,2.0,5.0,84,0.00,,,0.00,0.000000,,2013-02-11 02:42:00,
2013-02-10 19:52:00,8.0,4.0,-100.00,NNW,336,2.0,5.0,84,0.00,,,0.00,0.000000,,2013-02-11 02:52:00,
2013-02-10 20:21:00,8.0,4.0,-100.00,NW,318,2.0,5.0,83,0.00,,,0.00,0.000000,,2013-02-11 03:21:00,
2013-02-10 20:32:00,8.0,4.0,-100.00,NW,318,2.0,5.0,83,0.00,,,0.00,0.000000,,2013-02-11 03:32:00,
2013-02-10 20:42:00,8.0,4.0,-100.00,NW,318,2.0,5.0,83,0.00,,,0.00,0.000000,,2013-02-11 03:42:00,
2013-02-10 20:52:00,8.0,4.0,-100.00,NW,318,2.0,5.0,83,0.00,,,0.00,0.000000,,2013-02-11 03:52:00,
2013-02-10 21:21:00,8.0,4.0,-100.00,NNE,20,1.0,4.0,82,0.00,,,0.00,0.000000,,2013-02-11 04:21:00,
2013-02-10 21:32:00,8.0,4.0,-100.00,NNE,20,1.0,4.0,82,0.00,,,0.00,0.000000,,2013-02-11 04:32:00,
2013-02-10 21:42:00,8.0,4.0,-100.00,NNE,20,1.0,4.0,82,0.00,,,0.00,0.000000,,2013-02-11 04:42:00,
2013-02-10 21:51:00,8.0,4.0,-100.00,NNE,20,1.0,4.0,82,0.00,,,0.00,0.000000,,2013-02-11 04:51:00,
2013-02-10 22:12:00,7.0,3.0,-100.00,NNE,15,0.0,4.0,82,0.00,,,0.00,0.000000,,2013-02-11 05:12:00,
2013-02-10 22:22:00,7.0,3.0,-100.00,NNE,15,0.0,4.0,82,0.00,,,0.00,0.000000,,2013-02-11 05:22:00,
2013-02-10 22:32:00,7.0,3.0,-100.00,NNE,15,0.0,4.0,82,0.00,,,0.00,0.000000,,2013-02-11 05:32:00,
2013-02-10 22:42:00,7.0,3.0,-100.00,NNE,15,0.0,4.0,82,0.00,,,0.00,0.000000,,2013-02-11 05:42:00,
2013-02-10 22:52:00,7.0,3.0,-100.00,NNE,15,0.0,4.0,82,0.00,,,0.00,0.000000,,2013-02-11 05:52:00,
2013-02-10 23:11:00,7.0,3.0,-100.00,North,353,2.0,4.0,82,0.00,,,0.00,0.000000,,2013-02-11 06:11:00,
2013-02-10 23:21:00,7.0,3.0,-100.00,North,353,2.0,4.0,82,0.00,,,0.00,0.000000,,2013-02-11 06:21:00,
2013-02-10 23:32:00,7.0,3.0,-100.00,North,353,2.0,4.0,82,0.00,,,0.00,0.000000,,2013-02-11 06:32:00,
2013-02-10 23:42:00,7.0,3.0,-100.00,North,353,2.0,4.0,82,0.00,,,0.00,0.000000,,2013-02-11 06:42:00,
2013-02-10 23:51:00,7.0,3.0,-100.00,North,353,2.0,4.0,82,0.00,,,0.00,0.000000,,2013-02-11 06:51:00,